Lago Blanco, Argentina
Current Conditions -  °F | °C
As of 4:00 AM on Wednesday 26 Nov 2014 (Local Time) from SCBA Reporting Station
Overcast Overcast  
Wind Chill: 33°   Ceiling: Unl
Heat Index: 43°   Visibility: 6mi
Dew Point: 34°   Wind: 26mph
Humidity: 70%   Direction: 300°WNW
Pressure: 29.91"   Gusts: 38mph
Location:  45.94°S, 71.27°W
Report Text: SCBA 260700Z AUTO 30023G33KT 9999 VV/// 06/01 Q1013
Loading
Personal Weather Stations






























Interactive Weather Map New forecast layout! Learn more

10-Day Weather Forecast

Advertisements
Track Severe Weather on mobile